Time;durP1;ratioP1;P1;durP2;ratioP2;P2;SDS_P1;SDS_P2;PMS_P1;PMS_P2;Temp;Humidity;BMP_temperature;BMP_pressure;BME280_temperature;BME280_humidity;BME280_pressure;Samples;Min_cycle;Max_cycle;Signal;HPM_P1;HPM_P2
2023/06/21 00:01:58;;;;;;;26.67;4.53;;;;;;;;;;5012645;28;20404;-50
2023/06/21 00:04:25;;;;;;;41.63;5.07;;;;;;;;;;4981122;28;20524;-53
2023/06/21 00:06:53;;;;;;;25.02;4.65;;;;;;;;;;5014438;28;20069;-52
2023/06/21 00:09:21;;;;;;;24.88;4.35;;;;;;;;;;5014080;28;20061;-49
2023/06/21 00:11:48;;;;;;;28.70;4.68;;;;;;;;;;5014282;28;20042;-52
2023/06/21 00:14:15;;;;;;;28.33;5.15;;;;;;;;;;5014087;28;20036;-50
2023/06/21 00:16:44;;;;;;;38.30;4.68;;;;;;;;;;5015726;28;20131;-49
2023/06/21 00:19:11;;;;;;;28.23;4.75;;;;;;;;;;5025236;28;20069;-49
2023/06/21 00:21:38;;;;;;;31.33;4.93;;;;;;;;;;5022707;28;20025;-51
2023/06/21 00:24:06;;;;;;;39.33;6.10;;;;;;;;;;5033524;28;20075;-51
2023/06/21 00:26:33;;;;;;;31.77;5.85;;;;;;;;;;5015016;28;20042;-49
2023/06/21 00:29:00;;;;;;;36.55;6.05;;;;;;;;;;5014160;28;20041;-49
2023/06/21 00:31:27;;;;;;;22.35;5.93;;;;;;;;;;5001145;28;20417;-49
2023/06/21 00:33:54;;;;;;;29.27;5.03;;;;;;;;;;5015514;28;20048;-49
2023/06/21 00:36:21;;;;;;;33.60;5.85;;;;;;;;;;5013695;28;20022;-47
2023/06/21 00:38:48;;;;;;;35.13;5.68;;;;;;;;;;5032350;28;20033;-49
2023/06/21 00:41:16;;;;;;;38.08;6.20;;;;;;;;;;5015879;28;20026;-49
2023/06/21 00:43:43;;;;;;;21.75;5.25;;;;;;;;;;5033259;28;20109;-49
2023/06/21 00:46:10;;;;;;;31.30;6.22;;;;;;;;;;5033417;28;20042;-48
2023/06/21 00:48:37;;;;;;;39.78;5.97;;;;;;;;;;5033215;28;20021;-51
2023/06/21 00:51:04;;;;;;;32.13;5.63;;;;;;;;;;5016932;28;20038;-48
2023/06/21 00:53:31;;;;;;;25.58;6.05;;;;;;;;;;5023449;28;20047;-49
2023/06/21 00:56:01;;;;;;;27.83;6.15;;;;;;;;;;5033296;28;20022;-50
2023/06/21 00:58:28;;;;;;;34.30;6.22;;;;;;;;;;5032933;28;20061;-49
2023/06/21 01:00:55;;;;;;;30.10;6.32;;;;;;;;;;5033177;28;20365;-51
2023/06/21 01:03:23;;;;;;;29.63;5.95;;;;;;;;;;5032296;28;20116;-49
2023/06/21 01:06:15;;;;;;;33.88;5.75;;;;;;;;;;5032848;28;20160;-49
2023/06/21 01:08:42;;;;;;;;;;;;;;;;;;4985431;28;20061;-50
2023/06/21 01:11:19;;;;;;;26.20;6.25;;;;;;;;;;5033002;28;19924;-49
2023/06/21 01:13:52;;;;;;;24.15;5.82;;;;;;;;;;5032773;28;20105;-49
2023/06/21 01:16:20;;;;;;;23.42;5.60;;;;;;;;;;5033073;28;20391;-50
2023/06/21 01:18:48;;;;;;;26.15;6.07;;;;;;;;;;5030943;28;20041;-51
2023/06/21 01:21:22;;;;;;;32.88;6.43;;;;;;;;;;5021078;28;20418;-49
2023/06/21 01:23:52;;;;;;;19.17;5.40;;;;;;;;;;5032719;28;20497;-49
2023/06/21 01:26:37;;;;;;;26.02;5.97;;;;;;;;;;5027978;28;20639;-48
2023/06/21 01:29:07;;;;;;;29.10;5.18;;;;;;;;;;5010270;28;20041;-50
2023/06/21 01:31:35;;;;;;;20.25;5.72;;;;;;;;;;5018989;28;20032;-48
2023/06/21 01:34:04;;;;;;;25.45;6.15;;;;;;;;;;5023299;28;20029;-49
2023/06/21 01:36:32;;;;;;;24.73;5.60;;;;;;;;;;5022943;28;20049;-51
2023/06/21 01:39:00;;;;;;;24.10;5.10;;;;;;;;;;5031417;28;20036;-50
2023/06/21 01:41:28;;;;;;;16.00;4.95;;;;;;;;;;5018578;28;20112;-51
2023/06/21 01:43:55;;;;;;;17.73;4.95;;;;;;;;;;5032283;28;20148;-49
2023/06/21 01:46:25;;;;;;;23.88;5.30;;;;;;;;;;5032054;28;20041;-49
2023/06/21 01:48:54;;;;;;;18.15;4.93;;;;;;;;;;5032236;28;20029;-52
2023/06/21 01:51:21;;;;;;;22.73;5.82;;;;;;;;;;5026604;28;20029;-51
2023/06/21 01:53:48;;;;;;;17.38;4.82;;;;;;;;;;5024620;28;20109;-50
2023/06/21 01:56:19;;;;;;;16.35;5.07;;;;;;;;;;5031789;28;20025;-49
2023/06/21 01:58:49;;;;;;;21.10;4.75;;;;;;;;;;5031951;28;20053;-49
2023/06/21 02:01:18;;;;;;;15.23;4.55;;;;;;;;;;5032188;28;20049;-49
2023/06/21 02:04:04;;;;;;;19.15;4.22;;;;;;;;;;5031744;28;20041;-50
2023/06/21 02:06:32;;;;;;;19.75;4.35;;;;;;;;;;5032110;28;20483;-50
2023/06/21 02:09:06;;;;;;;20.85;4.22;;;;;;;;;;5022523;28;20060;-48
2023/06/21 02:11:33;;;;;;;15.90;4.22;;;;;;;;;;5031595;28;20037;-48
2023/06/21 02:14:00;;;;;;;19.00;4.35;;;;;;;;;;5031725;28;20025;-49
2023/06/21 02:16:31;;;;;;;17.58;4.55;;;;;;;;;;5031757;28;20463;-48
2023/06/21 02:18:59;;;;;;;16.55;3.95;;;;;;;;;;5012103;28;20038;-49
2023/06/21 02:21:26;;;;;;;16.88;3.88;;;;;;;;;;5017237;28;20045;-49
2023/06/21 02:23:53;;;;;;;13.05;4.20;;;;;;;;;;5022573;28;20052;-49
2023/06/21 02:26:20;;;;;;;10.27;3.60;;;;;;;;;;5022670;28;20566;-48
2023/06/21 02:28:47;;;;;;;16.80;4.03;;;;;;;;;;5023120;28;20029;-53
2023/06/21 02:31:14;;;;;;;14.93;3.60;;;;;;;;;;5020378;28;20566;-52
2023/06/21 02:33:50;;;;;;;16.27;3.85;;;;;;;;;;5021350;28;20108;-51
2023/06/21 02:36:18;;;;;;;12.93;3.17;;;;;;;;;;5020802;28;20045;-52
2023/06/21 02:38:45;;;;;;;12.70;3.30;;;;;;;;;;5020701;28;20048;-52
2023/06/21 02:41:12;;;;;;;11.88;3.10;;;;;;;;;;5022279;28;20040;-53
2023/06/21 02:43:39;;;;;;;13.73;3.30;;;;;;;;;;5025259;28;20164;-49
2023/06/21 02:46:06;;;;;;;13.43;3.28;;;;;;;;;;5014305;28;20034;-49
2023/06/21 02:48:33;;;;;;;10.05;2.72;;;;;;;;;;5036489;28;20513;-49
2023/06/21 02:51:00;;;;;;;8.70;3.13;;;;;;;;;;5051538;28;20092;-49
2023/06/21 02:53:27;;;;;;;15.50;3.47;;;;;;;;;;5051481;28;20037;-49
2023/06/21 02:55:54;;;;;;;10.45;2.90;;;;;;;;;;5051500;28;20035;-49
2023/06/21 02:58:22;;;;;;;8.18;2.33;;;;;;;;;;5051175;28;20122;-49
2023/06/21 03:00:48;;;;;;;13.80;3.05;;;;;;;;;;5051413;28;20033;-50
2023/06/21 03:03:15;;;;;;;8.60;2.72;;;;;;;;;;5051277;28;20056;-49
2023/06/21 03:05:43;;;;;;;8.35;2.72;;;;;;;;;;5051391;28;20505;-49
2023/06/21 03:08:11;;;;;;;10.35;2.85;;;;;;;;;;5051361;28;20515;-50
2023/06/21 03:10:39;;;;;;;10.55;3.03;;;;;;;;;;5051184;28;20044;-49
2023/06/21 03:13:06;;;;;;;8.07;2.70;;;;;;;;;;5051264;28;20122;-49
2023/06/21 03:15:33;;;;;;;8.57;2.65;;;;;;;;;;5051362;28;20028;-49
2023/06/21 03:18:00;;;;;;;9.95;2.92;;;;;;;;;;5051212;28;20025;-49
2023/06/21 03:20:27;;;;;;;8.88;2.35;;;;;;;;;;5051281;28;20119;-49
2023/06/21 03:22:54;;;;;;;10.15;2.65;;;;;;;;;;5051242;28;20041;-49
2023/06/21 03:25:21;;;;;;;9.85;2.92;;;;;;;;;;5051236;28;20410;-49
2023/06/21 03:27:48;;;;;;;6.85;2.30;;;;;;;;;;5053659;28;20047;-50
2023/06/21 03:30:15;;;;;;;7.05;2.42;;;;;;;;;;5055201;28;20025;-49
2023/06/21 03:32:46;;;;;;;7.72;2.20;;;;;;;;;;5055133;28;20530;-51
2023/06/21 03:35:16;;;;;;;9.88;2.63;;;;;;;;;;5055253;28;20031;-49
2023/06/21 03:37:44;;;;;;;8.55;2.45;;;;;;;;;;5055056;28;20083;-49
2023/06/21 03:40:13;;;;;;;6.45;2.42;;;;;;;;;;5055096;28;20127;-49
2023/06/21 03:42:40;;;;;;;8.45;2.58;;;;;;;;;;5054813;28;20706;-48
2023/06/21 03:45:07;;;;;;;5.35;2.13;;;;;;;;;;5054761;28;20056;-49
2023/06/21 03:47:42;;;;;;;6.45;2.33;;;;;;;;;;5054797;28;20041;-49
2023/06/21 03:50:09;;;;;;;5.40;2.03;;;;;;;;;;5054695;28;20033;-50
2023/06/21 03:52:37;;;;;;;6.32;1.95;;;;;;;;;;5055079;28;20447;-49
2023/06/21 03:55:05;;;;;;;5.25;2.20;;;;;;;;;;5054506;28;20044;-51
2023/06/21 03:57:32;;;;;;;5.78;2.35;;;;;;;;;;5054732;28;20052;-48
2023/06/21 03:59:59;;;;;;;4.28;1.70;;;;;;;;;;5054497;28;20052;-49
2023/06/21 04:02:26;;;;;;;6.72;2.33;;;;;;;;;;5054551;28;20071;-50
2023/06/21 04:04:53;;;;;;;4.47;1.98;;;;;;;;;;5054516;28;20757;-49
2023/06/21 04:07:23;;;;;;;6.72;2.10;;;;;;;;;;5054439;28;20115;-49
2023/06/21 04:09:51;;;;;;;4.88;2.10;;;;;;;;;;5054367;28;20094;-49
2023/06/21 04:12:18;;;;;;;6.53;1.90;;;;;;;;;;5054473;28;20143;-49
2023/06/21 04:14:45;;;;;;;5.43;2.10;;;;;;;;;;5054172;28;20025;-49
2023/06/21 04:17:12;;;;;;;4.70;1.70;;;;;;;;;;5054277;28;20518;-49
2023/06/21 04:19:39;;;;;;;5.00;1.92;;;;;;;;;;5054288;28;20100;-52
2023/06/21 04:22:07;;;;;;;6.35;1.90;;;;;;;;;;5054284;28;20132;-50
2023/06/21 04:24:36;;;;;;;3.95;1.80;;;;;;;;;;5054107;28;20028;-49
2023/06/21 04:27:05;;;;;;;5.63;2.30;;;;;;;;;;5053868;28;20048;-49
2023/06/21 04:29:36;;;;;;;3.30;1.60;;;;;;;;;;5054017;28;20483;-49
2023/06/21 04:32:04;;;;;;;3.78;1.73;;;;;;;;;;5054063;28;20041;-49
2023/06/21 04:34:33;;;;;;;4.30;1.52;;;;;;;;;;5035974;28;20158;-49
2023/06/21 04:37:05;;;;;;;3.10;1.33;;;;;;;;;;5053860;28;20037;-50
2023/06/21 04:39:32;;;;;;;4.07;1.65;;;;;;;;;;5052619;28;20391;-49
2023/06/21 04:41:59;;;;;;;3.60;1.70;;;;;;;;;;5053877;28;20033;-49
2023/06/21 04:44:27;;;;;;;4.40;1.80;;;;;;;;;;5053617;28;20029;-49
2023/06/21 04:46:55;;;;;;;3.67;1.50;;;;;;;;;;5053439;28;20048;-49
2023/06/21 04:49:26;;;;;;;4.32;1.60;;;;;;;;;;5053807;28;20033;-50
2023/06/21 04:51:57;;;;;;;4.30;1.50;;;;;;;;;;5053643;28;20065;-49
2023/06/21 04:54:29;;;;;;;2.97;1.30;;;;;;;;;;5053371;28;20056;-49
2023/06/21 04:56:56;;;;;;;3.42;1.80;;;;;;;;;;5053428;28;20039;-49
2023/06/21 04:59:23;;;;;;;3.53;1.50;;;;;;;;;;5035331;28;20052;-49
2023/06/21 05:01:50;;;;;;;4.68;1.50;;;;;;;;;;5053410;28;20552;-49
2023/06/21 05:04:16;;;;;;;5.55;1.80;;;;;;;;;;5053362;28;20029;-49
2023/06/21 05:06:43;;;;;;;2.50;1.20;;;;;;;;;;5053350;28;20037;-49
2023/06/21 05:09:10;;;;;;;2.28;1.40;;;;;;;;;;5053405;28;20773;-49
2023/06/21 05:11:38;;;;;;;3.72;1.63;;;;;;;;;;5053344;28;20115;-49
2023/06/21 05:14:05;;;;;;;2.63;1.40;;;;;;;;;;5035145;28;20390;-50
2023/06/21 05:16:32;;;;;;;3.78;1.40;;;;;;;;;;5053207;28;20043;-49
2023/06/21 05:18:59;;;;;;;5.72;1.40;;;;;;;;;;5053217;28;20072;-50
2023/06/21 05:21:26;;;;;;;3.50;1.25;;;;;;;;;;5053055;28;20047;-49
2023/06/21 05:23:53;;;;;;;4.38;1.85;;;;;;;;;;5052983;28;20103;-49
2023/06/21 05:26:20;;;;;;;4.43;1.60;;;;;;;;;;5052983;28;20029;-49
2023/06/21 05:28:47;;;;;;;1.95;1.20;;;;;;;;;;5052960;28;20386;-50
2023/06/21 05:31:14;;;;;;;3.45;1.55;;;;;;;;;;5052964;28;20108;-49
2023/06/21 05:33:41;;;;;;;2.28;1.30;;;;;;;;;;5052816;28;20031;-49
2023/06/21 05:36:09;;;;;;;3.63;1.55;;;;;;;;;;5052805;28;20040;-49
2023/06/21 05:38:36;;;;;;;3.05;1.33;;;;;;;;;;5052813;28;20044;-49
2023/06/21 05:41:03;;;;;;;2.67;1.20;;;;;;;;;;5052532;28;20021;-49
2023/06/21 05:43:30;;;;;;;2.35;1.30;;;;;;;;;;5052618;28;20478;-50
2023/06/21 05:45:57;;;;;;;2.72;1.20;;;;;;;;;;5052246;28;20029;-49
2023/06/21 05:48:24;;;;;;;2.28;1.25;;;;;;;;;;5052543;28;20060;-50
2023/06/21 05:50:51;;;;;;;4.68;1.25;;;;;;;;;;5052298;28;20029;-49
2023/06/21 05:53:18;;;;;;;3.15;1.38;;;;;;;;;;5052382;28;20491;-51
2023/06/21 05:55:46;;;;;;;2.83;1.48;;;;;;;;;;5052340;28;20051;-49
2023/06/21 05:58:13;;;;;;;2.72;1.02;;;;;;;;;;5052331;28;20041;-50
2023/06/21 06:00:40;;;;;;;2.90;1.23;;;;;;;;;;5051326;28;20028;-51
2023/06/21 06:03:08;;;;;;;2.17;1.40;;;;;;;;;;5031794;28;20029;-49
2023/06/21 06:05:36;;;;;;;2.42;1.20;;;;;;;;;;5032325;28;20476;-50
2023/06/21 06:08:03;;;;;;;1.77;1.05;;;;;;;;;;5032273;28;20034;-49
2023/06/21 06:10:30;;;;;;;2.00;0.95;;;;;;;;;;5032211;28;20116;-49
2023/06/21 06:12:57;;;;;;;2.35;1.25;;;;;;;;;;5032159;28;20021;-50
2023/06/21 06:15:24;;;;;;;3.00;1.20;;;;;;;;;;5032275;28;20029;-49
2023/06/21 06:17:51;;;;;;;2.42;1.02;;;;;;;;;;5032169;28;20037;-48
2023/06/21 06:20:18;;;;;;;2.83;1.10;;;;;;;;;;5032135;28;20033;-49
2023/06/21 06:22:45;;;;;;;3.03;1.20;;;;;;;;;;5031946;28;20021;-50
2023/06/21 06:25:11;;;;;;;4.07;1.30;;;;;;;;;;5031992;28;20037;-50
2023/06/21 06:27:38;;;;;;;2.78;1.27;;;;;;;;;;5032002;28;20041;-51
2023/06/21 06:30:06;;;;;;;2.13;1.27;;;;;;;;;;5031908;28;20025;-49
2023/06/21 06:32:33;;;;;;;2.50;1.00;;;;;;;;;;5031907;28;20519;-49
2023/06/21 06:35:00;;;;;;;2.80;1.20;;;;;;;;;;5031835;28;20156;-49
2023/06/21 06:37:27;;;;;;;2.45;1.30;;;;;;;;;;5014075;28;20462;-48
2023/06/21 06:39:55;;;;;;;2.15;1.15;;;;;;;;;;5031806;28;20030;-49
2023/06/21 06:42:22;;;;;;;2.08;1.00;;;;;;;;;;5031931;28;20495;-51
2023/06/21 06:44:50;;;;;;;2.85;1.10;;;;;;;;;;5031757;28;20037;-49
2023/06/21 06:47:17;;;;;;;2.83;1.13;;;;;;;;;;5031525;28;20045;-49
2023/06/21 06:49:44;;;;;;;2.97;1.00;;;;;;;;;;5031790;28;20451;-49
2023/06/21 06:52:14;;;;;;;2.55;1.25;;;;;;;;;;5031710;28;20024;-50
2023/06/21 06:54:41;;;;;;;2.00;1.00;;;;;;;;;;5031575;28;20035;-50
2023/06/21 06:57:08;;;;;;;2.10;1.00;;;;;;;;;;5031623;28;20048;-48
2023/06/21 06:59:35;;;;;;;1.88;1.17;;;;;;;;;;5031479;28;20542;-49
2023/06/21 07:02:02;;;;;;;2.30;0.90;;;;;;;;;;5030959;28;20138;-49
2023/06/21 07:04:30;;;;;;;2.35;0.88;;;;;;;;;;5031536;28;20048;-50
2023/06/21 07:06:58;;;;;;;1.85;1.15;;;;;;;;;;5031225;28;20037;-49
2023/06/21 07:09:26;;;;;;;1.63;0.90;;;;;;;;;;5031460;28;20037;-49
2023/06/21 07:11:56;;;;;;;1.83;0.90;;;;;;;;;;5013699;28;20414;-49
2023/06/21 07:14:26;;;;;;;3.05;1.15;;;;;;;;;;5031591;28;20041;-49
2023/06/21 07:16:53;;;;;;;2.00;1.00;;;;;;;;;;5031560;28;20391;-49
2023/06/21 07:19:20;;;;;;;2.30;0.88;;;;;;;;;;5031433;28;20057;-49
2023/06/21 07:21:47;;;;;;;2.20;1.00;;;;;;;;;;5031531;28;20049;-48
2023/06/21 07:24:14;;;;;;;1.98;0.88;;;;;;;;;;5031344;28;20112;-50
2023/06/21 07:26:41;;;;;;;2.05;1.10;;;;;;;;;;5031293;28;20049;-48
2023/06/21 07:29:08;;;;;;;1.70;0.98;;;;;;;;;;5031208;28;20434;-50
2023/06/21 07:31:35;;;;;;;2.28;1.10;;;;;;;;;;5031410;28;20045;-52
2023/06/21 07:34:02;;;;;;;2.58;1.13;;;;;;;;;;5031206;28;20025;-49
2023/06/21 07:36:29;;;;;;;2.13;0.85;;;;;;;;;;5031289;28;20025;-51
2023/06/21 07:38:56;;;;;;;1.40;0.98;;;;;;;;;;5031363;28;20156;-49
2023/06/21 07:41:23;;;;;;;2.15;1.10;;;;;;;;;;5031250;28;20746;-49
2023/06/21 07:43:50;;;;;;;1.88;1.02;;;;;;;;;;5198142;22;20059;-46
2023/06/21 07:46:17;;;;;;;1.55;0.85;;;;;;;;;;5061128;28;20119;-48
2023/06/21 07:48:45;;;;;;;2.33;0.90;;;;;;;;;;5071164;28;20017;-47
2023/06/21 07:51:12;;;;;;;3.05;1.00;;;;;;;;;;5070996;28;20028;-48
2023/06/21 07:53:39;;;;;;;1.92;0.93;;;;;;;;;;5070905;28;20533;-47
2023/06/21 07:56:06;;;;;;;1.75;0.75;;;;;;;;;;5071004;28;20082;-47
2023/06/21 07:58:33;;;;;;;2.22;1.00;;;;;;;;;;5070915;28;20028;-48
2023/06/21 08:01:00;;;;;;;1.70;0.90;;;;;;;;;;5071029;28;20025;-47
2023/06/21 08:03:27;;;;;;;1.48;0.90;;;;;;;;;;5070865;28;20441;-47
2023/06/21 08:05:54;;;;;;;1.88;0.93;;;;;;;;;;5070479;28;20374;-47
2023/06/21 08:08:21;;;;;;;1.20;1.00;;;;;;;;;;5070860;28;20044;-47
2023/06/21 08:10:48;;;;;;;1.38;1.00;;;;;;;;;;5070905;28;20020;-48
2023/06/21 08:13:18;;;;;;;1.15;0.88;;;;;;;;;;5072170;28;20028;-47
2023/06/21 08:15:45;;;;;;;1.92;0.90;;;;;;;;;;5074231;28;20033;-47
2023/06/21 08:18:13;;;;;;;1.92;0.90;;;;;;;;;;5074321;28;20406;-46
2023/06/21 08:20:40;;;;;;;1.65;0.75;;;;;;;;;;5074233;28;20444;-47
2023/06/21 08:23:10;;;;;;;2.50;1.08;;;;;;;;;;5074077;28;20382;-45
2023/06/21 08:25:37;;;;;;;2.58;0.88;;;;;;;;;;5074280;28;20027;-46
2023/06/21 08:28:04;;;;;;;1.45;0.95;;;;;;;;;;5073889;28;20021;-47
2023/06/21 08:30:31;;;;;;;1.50;1.00;;;;;;;;;;5074160;28;20024;-47
2023/06/21 08:32:58;;;;;;;1.70;0.93;;;;;;;;;;5073819;28;20044;-47
2023/06/21 08:35:25;;;;;;;2.45;0.93;;;;;;;;;;5074101;28;20013;-48
2023/06/21 08:37:56;;;;;;;1.20;0.82;;;;;;;;;;5073993;28;20032;-47
2023/06/21 08:40:25;;;;;;;1.85;0.90;;;;;;;;;;5073977;28;20056;-47
2023/06/21 08:42:52;;;;;;;1.33;0.70;;;;;;;;;;5073887;28;20020;-47
2023/06/21 08:45:19;;;;;;;1.25;0.75;;;;;;;;;;5073549;28;20518;-47
2023/06/21 08:47:47;;;;;;;1.20;0.88;;;;;;;;;;5055781;28;20533;-47
2023/06/21 08:50:18;;;;;;;0.90;0.68;;;;;;;;;;5073859;28;20032;-48
2023/06/21 08:52:46;;;;;;;1.42;0.60;;;;;;;;;;5073764;28;20032;-47
2023/06/21 08:55:15;;;;;;;1.95;0.75;;;;;;;;;;5073538;28;20100;-47
2023/06/21 08:57:46;;;;;;;1.38;0.68;;;;;;;;;;5073409;28;20375;-45
2023/06/21 09:00:14;;;;;;;1.08;0.80;;;;;;;;;;5073489;28;20021;-46
2023/06/21 09:02:44;;;;;;;1.25;0.70;;;;;;;;;;5055477;28;20028;-45
2023/06/21 09:05:15;;;;;;;1.05;0.73;;;;;;;;;;5073331;28;20041;-47
2023/06/21 09:07:42;;;;;;;1.38;0.93;;;;;;;;;;5073498;28;20046;-47
2023/06/21 09:10:09;;;;;;;1.65;0.73;;;;;;;;;;5073473;28;20750;-48
2023/06/21 09:12:38;;;;;;;1.40;0.70;;;;;;;;;;5073257;28;20421;-48
2023/06/21 09:15:05;;;;;;;1.73;0.80;;;;;;;;;;5073162;28;20024;-48
2023/06/21 09:17:33;;;;;;;1.52;0.82;;;;;;;;;;5072739;28;20058;-46
2023/06/21 09:20:00;;;;;;;1.27;0.82;;;;;;;;;;5073109;28;20047;-46
2023/06/21 09:22:27;;;;;;;0.85;0.70;;;;;;;;;;5073056;28;20024;-46
2023/06/21 09:24:55;;;;;;;1.33;0.70;;;;;;;;;;5072391;28;20032;-48
2023/06/21 09:27:22;;;;;;;1.73;0.90;;;;;;;;;;5072951;28;20040;-47
2023/06/21 09:29:49;;;;;;;1.20;0.70;;;;;;;;;;5072805;28;20054;-47
2023/06/21 09:32:16;;;;;;;1.88;0.82;;;;;;;;;;5053199;28;20033;-47
2023/06/21 09:34:44;;;;;;;1.05;0.68;;;;;;;;;;5042185;28;20386;-47
2023/06/21 09:37:10;;;;;;;2.30;0.70;;;;;;;;;;5044523;28;20112;-45
2023/06/21 09:39:37;;;;;;;2.58;0.90;;;;;;;;;;5052235;28;20508;-44
2023/06/21 09:42:06;;;;;;;2.45;0.90;;;;;;;;;;5046078;28;20087;-47
2023/06/21 09:44:35;;;;;;;3.20;1.13;;;;;;;;;;5052570;28;20098;-47
2023/06/21 09:47:05;;;;;;;2.80;1.00;;;;;;;;;;5052405;28;20045;-47
2023/06/21 09:49:32;;;;;;;6.15;0.90;;;;;;;;;;5052472;28;20044;-47
2023/06/21 09:51:59;;;;;;;3.55;1.00;;;;;;;;;;5052624;28;20079;-47
2023/06/21 09:54:26;;;;;;;3.20;0.90;;;;;;;;;;5052359;28;20033;-46
2023/06/21 09:56:56;;;;;;;4.97;1.10;;;;;;;;;;5055549;28;20079;-47
2023/06/21 09:59:25;;;;;;;2.85;1.10;;;;;;;;;;5063616;28;20047;-48
2023/06/21 10:01:55;;;;;;;2.28;0.90;;;;;;;;;;5065399;28;20806;-47
2023/06/21 10:04:24;;;;;;;1.90;1.05;;;;;;;;;;5032140;28;20043;-46
2023/06/21 10:06:55;;;;;;;3.92;1.10;;;;;;;;;;5037945;28;20040;-46
2023/06/21 10:09:25;;;;;;;3.88;1.00;;;;;;;;;;5052093;28;20120;-47
2023/06/21 10:11:54;;;;;;;4.88;1.02;;;;;;;;;;5052253;28;20037;-47
2023/06/21 10:14:29;;;;;;;1.83;0.80;;;;;;;;;;5048158;28;20044;-47
2023/06/21 10:16:59;;;;;;;1.73;0.80;;;;;;;;;;5051917;28;20127;-47
2023/06/21 10:19:32;;;;;;;2.83;1.00;;;;;;;;;;5052099;28;20033;-46
2023/06/21 10:22:05;;;;;;;4.95;1.05;;;;;;;;;;5033961;28;20033;-46
2023/06/21 10:24:54;;;;;;;2.33;1.10;;;;;;;;;;5050901;28;20060;-46
2023/06/21 10:27:26;;;;;;;3.20;1.00;;;;;;;;;;5050598;28;20163;-46
2023/06/21 10:29:59;;;;;;;3.50;0.82;;;;;;;;;;5048844;28;20031;-46
2023/06/21 10:32:28;;;;;;;1.90;0.85;;;;;;;;;;5051226;28;20025;-45
2023/06/21 10:34:56;;;;;;;3.88;0.90;;;;;;;;;;5048731;28;20033;-46
2023/06/21 10:37:24;;;;;;;3.70;0.90;;;;;;;;;;5050157;28;20478;-46
2023/06/21 10:39:56;;;;;;;1.90;0.70;;;;;;;;;;5050976;28;20036;-48
2023/06/21 10:42:25;;;;;;;3.58;0.90;;;;;;;;;;5051191;28;20108;-46
2023/06/21 10:44:53;;;;;;;4.03;0.95;;;;;;;;;;5051474;28;20080;-48
2023/06/21 10:47:21;;;;;;;1.77;1.00;;;;;;;;;;5050711;28;20500;-47
2023/06/21 10:49:49;;;;;;;2.65;0.88;;;;;;;;;;5062522;28;20025;-48
2023/06/21 10:52:17;;;;;;;4.35;0.77;;;;;;;;;;5051555;28;20029;-47
2023/06/21 10:54:44;;;;;;;1.70;0.90;;;;;;;;;;5051472;28;20027;-49
2023/06/21 10:57:12;;;;;;;5.40;1.05;;;;;;;;;;5051478;28;20041;-47
2023/06/21 10:59:40;;;;;;;3.92;1.00;;;;;;;;;;5051556;28;20095;-47
2023/06/21 11:02:08;;;;;;;3.72;1.10;;;;;;;;;;5051520;28;20466;-47
2023/06/21 11:04:53;;;;;;;3.28;0.88;;;;;;;;;;5051016;28;20078;-47
2023/06/21 11:07:24;;;;;;;1.83;0.70;;;;;;;;;;5051392;28;20064;-48
2023/06/21 11:09:53;;;;;;;5.78;1.05;;;;;;;;;;5050912;28;20029;-46
2023/06/21 11:12:20;;;;;;;2.55;1.02;;;;;;;;;;5051219;28;20044;-47
2023/06/21 11:14:47;;;;;;;2.95;1.20;;;;;;;;;;5051049;28;20035;-45
2023/06/21 11:17:16;;;;;;;9.75;1.30;;;;;;;;;;5051084;28;20549;-45
2023/06/21 11:19:47;;;;;;;36.38;2.25;;;;;;;;;;5050843;28;20048;-45
2023/06/21 11:22:15;;;;;;;32.47;2.03;;;;;;;;;;5051138;28;20487;-44
2023/06/21 11:24:50;;;;;;;671.35;30.48;;;;;;;;;;5051001;28;20059;-43
2023/06/21 11:27:17;;;;;;;342.33;17.10;;;;;;;;;;5050893;28;20037;-46
2023/06/21 11:29:56;;;;;;;288.60;14.05;;;;;;;;;;5051092;28;20021;-46
2023/06/21 11:32:23;;;;;;;125.53;5.35;;;;;;;;;;5050947;28;20033;-46
2023/06/21 11:34:57;;;;;;;64.65;4.57;;;;;;;;;;5051034;28;20040;-46
2023/06/21 11:37:40;;;;;;;56.40;4.50;;;;;;;;;;5050905;28;20487;-46
2023/06/21 11:40:09;;;;;;;60.17;4.30;;;;;;;;;;5050952;28;20032;-51
2023/06/21 11:42:46;;;;;;;60.25;5.32;;;;;;;;;;5033026;28;20076;-49
2023/06/21 11:45:32;;;;;;;44.53;4.32;;;;;;;;;;5050833;28;20053;-48
2023/06/21 11:47:59;;;;;;;67.53;5.13;;;;;;;;;;5051854;28;20132;-48
2023/06/21 11:50:37;;;;;;;42.00;4.25;;;;;;;;;;5054890;28;20032;-48
2023/06/21 11:53:26;;;;;;;32.25;3.92;;;;;;;;;;5054743;28;20029;-49
2023/06/21 11:55:56;;;;;;;75.55;5.75;;;;;;;;;;5054568;28;20029;-49
2023/06/21 11:58:24;;;;;;;69.85;5.65;;;;;;;;;;5054664;28;20040;-49
2023/06/21 12:00:52;;;;;;;51.05;5.20;;;;;;;;;;5054529;28;20021;-49
2023/06/21 12:03:22;;;;;;;38.20;4.00;;;;;;;;;;5054395;28;20773;-48
2023/06/21 12:05:52;;;;;;;35.95;4.93;;;;;;;;;;5054422;28;20029;-51
2023/06/21 12:08:20;;;;;;;47.33;5.25;;;;;;;;;;5054521;28;20108;-49
2023/06/21 12:10:48;;;;;;;32.72;4.78;;;;;;;;;;5054427;28;20029;-48
2023/06/21 12:13:20;;;;;;;30.08;4.45;;;;;;;;;;5054216;28;20029;-49
2023/06/21 12:15:48;;;;;;;38.17;4.88;;;;;;;;;;5054224;28;20036;-49
2023/06/21 12:18:15;;;;;;;36.30;4.85;;;;;;;;;;5054201;28;20406;-48
2023/06/21 12:20:42;;;;;;;35.38;3.85;;;;;;;;;;5054308;28;20425;-49
2023/06/21 12:23:10;;;;;;;27.40;4.25;;;;;;;;;;5053970;28;20029;-48
2023/06/21 12:25:43;;;;;;;31.80;4.68;;;;;;;;;;5054111;28;20032;-49
2023/06/21 12:28:12;;;;;;;36.97;4.47;;;;;;;;;;5054109;28;20029;-48
2023/06/21 12:30:53;;;;;;;33.22;4.57;;;;;;;;;;5054160;28;20124;-48
2023/06/21 12:33:24;;;;;;;27.10;3.92;;;;;;;;;;5053582;28;20118;-48
2023/06/21 12:35:51;;;;;;;32.90;4.57;;;;;;;;;;5035906;28;20098;-50
2023/06/21 12:38:18;;;;;;;35.35;4.03;;;;;;;;;;5053779;28;20082;-48
2023/06/21 12:40:55;;;;;;;29.13;4.40;;;;;;;;;;5053637;28;20037;-48
2023/06/21 12:43:40;;;;;;;25.85;3.92;;;;;;;;;;5053481;28;20036;-48
2023/06/21 12:46:08;;;;;;;35.75;4.72;;;;;;;;;;5053725;28;20024;-49
2023/06/21 12:48:36;;;;;;;31.23;4.30;;;;;;;;;;5053652;28;20430;-47
2023/06/21 12:51:03;;;;;;;23.60;3.35;;;;;;;;;;5035645;28;20111;-45
2023/06/21 12:53:32;;;;;;;27.85;4.47;;;;;;;;;;5053570;28;20087;-46
2023/06/21 12:56:11;;;;;;;36.47;4.40;;;;;;;;;;5053422;28;20390;-47
2023/06/21 12:58:39;;;;;;;29.67;3.83;;;;;;;;;;5053411;28;20040;-46
2023/06/21 13:01:07;;;;;;;28.42;4.05;;;;;;;;;;5052425;28;20056;-49
2023/06/21 13:03:35;;;;;;;33.80;4.05;;;;;;;;;;5053263;28;20021;-48
2023/06/21 13:06:03;;;;;;;25.65;3.90;;;;;;;;;;5053122;28;20063;-50
2023/06/21 13:08:32;;;;;;;24.10;4.03;;;;;;;;;;5053407;28;20095;-50
2023/06/21 13:11:00;;;;;;;23.65;3.67;;;;;;;;;;5053068;28;20029;-52
2023/06/21 13:13:27;;;;;;;21.40;3.50;;;;;;;;;;5053112;28;20033;-52
2023/06/21 13:15:55;;;;;;;16.15;3.40;;;;;;;;;;5053105;28;20026;-49
2023/06/21 13:18:23;;;;;;;17.45;3.50;;;;;;;;;;5052965;28;20483;-50
2023/06/21 13:20:52;;;;;;;23.70;3.40;;;;;;;;;;5052912;28;20124;-51
2023/06/21 13:23:19;;;;;;;22.27;3.55;;;;;;;;;;5052757;28;20067;-50
2023/06/21 13:25:47;;;;;;;20.73;3.28;;;;;;;;;;5034884;28;20455;-50
2023/06/21 13:28:14;;;;;;;19.70;3.70;;;;;;;;;;5052725;28;20068;-48
2023/06/21 13:30:41;;;;;;;19.40;2.75;;;;;;;;;;5052823;28;20033;-49
2023/06/21 13:33:08;;;;;;;20.17;3.25;;;;;;;;;;5052717;28;20029;-48
2023/06/21 13:35:35;;;;;;;18.50;3.05;;;;;;;;;;5052825;28;20028;-48
2023/06/21 13:38:03;;;;;;;20.50;3.15;;;;;;;;;;5034520;28;20390;-51
2023/06/21 13:40:30;;;;;;;16.60;3.20;;;;;;;;;;5052566;28;20487;-50
2023/06/21 13:42:57;;;;;;;16.48;2.55;;;;;;;;;;5052428;28;20029;-49
2023/06/21 13:45:24;;;;;;;14.65;2.60;;;;;;;;;;5052451;28;20402;-48
2023/06/21 13:47:51;;;;;;;18.42;2.95;;;;;;;;;;5052517;28;20110;-48
2023/06/21 13:50:18;;;;;;;17.05;2.55;;;;;;;;;;5052507;28;20029;-49
2023/06/21 13:52:45;;;;;;;13.45;2.40;;;;;;;;;;5052130;28;20510;-50
2023/06/21 13:55:15;;;;;;;12.50;2.08;;;;;;;;;;5052331;28;20048;-49
2023/06/21 13:57:42;;;;;;;10.88;2.08;;;;;;;;;;5052288;28;20041;-49
2023/06/21 14:00:13;;;;;;;14.20;2.15;;;;;;;;;;5052074;28;20037;-49
2023/06/21 14:02:41;;;;;;;10.48;1.52;;;;;;;;;;5051918;28;20036;-49
2023/06/21 14:05:09;;;;;;;9.43;1.70;;;;;;;;;;5052040;28;20021;-48
2023/06/21 14:07:36;;;;;;;37.38;3.47;;;;;;;;;;5052178;28;20031;-50
2023/06/21 14:10:04;;;;;;;5.93;1.90;;;;;;;;;;5052069;28;20032;-48
2023/06/21 14:12:31;;;;;;;19.33;2.00;;;;;;;;;;5024439;28;20025;-47
2023/06/21 14:14:58;;;;;;;8.57;1.67;;;;;;;;;;5041325;28;20548;-45
2023/06/21 14:17:25;;;;;;;8.05;1.83;;;;;;;;;;5040516;28;20140;-44
2023/06/21 14:19:52;;;;;;;5.13;1.60;;;;;;;;;;5040338;28;20099;-47
2023/06/21 14:22:19;;;;;;;6.32;1.70;;;;;;;;;;5041311;28;20028;-47
2023/06/21 14:24:46;;;;;;;6.32;2.00;;;;;;;;;;5042215;28;20540;-47
2023/06/21 14:27:13;;;;;;;13.57;1.77;;;;;;;;;;5040430;28;20037;-44
2023/06/21 14:29:44;;;;;;;5.00;1.90;;;;;;;;;;5040930;28;20564;-44
2023/06/21 14:32:11;;;;;;;8.00;2.03;;;;;;;;;;5041979;28;20036;-44
2023/06/21 14:34:43;;;;;;;6.57;1.70;;;;;;;;;;5041032;28;20112;-43
2023/06/21 14:37:13;;;;;;;4.40;1.60;;;;;;;;;;5039406;28;20399;-47
2023/06/21 14:39:40;;;;;;;4.70;1.70;;;;;;;;;;5044621;28;20435;-47
2023/06/21 14:42:11;;;;;;;4.97;1.65;;;;;;;;;;5050238;28;20107;-46
2023/06/21 14:44:44;;;;;;;6.78;1.63;;;;;;;;;;5031107;28;20578;-47
2023/06/21 14:47:11;;;;;;;6.75;1.83;;;;;;;;;;5046713;28;20091;-46